sensor_id;sensor_type;location;lat;lon;timestamp;temperature;humidity
45066;DHT22;30830;53.704;10.004;2023-06-19T00:01:54;19.50;97.90
45066;DHT22;30830;53.704;10.004;2023-06-19T00:04:20;19.50;98.00
45066;DHT22;30830;53.704;10.004;2023-06-19T00:06:45;19.40;98.10
45066;DHT22;30830;53.704;10.004;2023-06-19T00:09:11;19.40;98.10
45066;DHT22;30830;53.704;10.004;2023-06-19T00:11:36;19.40;98.20
45066;DHT22;30830;53.704;10.004;2023-06-19T00:14:02;19.40;98.20
45066;DHT22;30830;53.704;10.004;2023-06-19T00:16:28;19.40;98.40
45066;DHT22;30830;53.704;10.004;2023-06-19T00:18:54;19.40;98.30
45066;DHT22;30830;53.704;10.004;2023-06-19T00:21:25;19.40;98.50
45066;DHT22;30830;53.704;10.004;2023-06-19T00:23:51;19.40;98.60
45066;DHT22;30830;53.704;10.004;2023-06-19T00:26:17;19.30;98.70
45066;DHT22;30830;53.704;10.004;2023-06-19T00:28:44;19.30;98.70
45066;DHT22;30830;53.704;10.004;2023-06-19T00:31:13;19.30;98.80
45066;DHT22;30830;53.704;10.004;2023-06-19T00:33:40;19.30;99.00
45066;DHT22;30830;53.704;10.004;2023-06-19T00:36:09;19.30;99.10
45066;DHT22;30830;53.704;10.004;2023-06-19T00:38:36;19.30;99.20
45066;DHT22;30830;53.704;10.004;2023-06-19T00:41:02;19.20;99.20
45066;DHT22;30830;53.704;10.004;2023-06-19T00:43:28;19.20;99.20
45066;DHT22;30830;53.704;10.004;2023-06-19T00:45:56;19.20;99.30
45066;DHT22;30830;53.704;10.004;2023-06-19T00:48:22;19.20;99.80
45066;DHT22;30830;53.704;10.004;2023-06-19T00:50:49;19.20;99.90
45066;DHT22;30830;53.704;10.004;2023-06-19T00:53:15;19.10;99.90
45066;DHT22;30830;53.704;10.004;2023-06-19T00:55:41;19.10;99.90
45066;DHT22;30830;53.704;10.004;2023-06-19T00:58:08;19.10;99.90
45066;DHT22;30830;53.704;10.004;2023-06-19T01:00:34;19.00;99.90
45066;DHT22;30830;53.704;10.004;2023-06-19T01:03:00;19.00;99.90
45066;DHT22;30830;53.704;10.004;2023-06-19T01:05:26;18.90;99.90
45066;DHT22;30830;53.704;10.004;2023-06-19T01:10:28;18.90;99.90
45066;DHT22;30830;53.704;10.004;2023-06-19T01:13:01;18.90;99.90
45066;DHT22;30830;53.704;10.004;2023-06-19T01:15:28;18.90;99.90
45066;DHT22;30830;53.704;10.004;2023-06-19T01:17:56;18.90;99.90
45066;DHT22;30830;53.704;10.004;2023-06-19T01:20:23;18.90;99.90
45066;DHT22;30830;53.704;10.004;2023-06-19T01:22:49;18.90;99.90
45066;DHT22;30830;53.704;10.004;2023-06-19T01:25:14;18.90;99.90
45066;DHT22;30830;53.704;10.004;2023-06-19T01:27:41;18.80;99.90
45066;DHT22;30830;53.704;10.004;2023-06-19T01:30:09;18.80;99.90
45066;DHT22;30830;53.704;10.004;2023-06-19T01:35:08;18.80;99.90
45066;DHT22;30830;53.704;10.004;2023-06-19T01:37:36;18.80;99.90
45066;DHT22;30830;53.704;10.004;2023-06-19T01:40:05;18.80;99.90
45066;DHT22;30830;53.704;10.004;2023-06-19T01:42:32;18.80;99.90
45066;DHT22;30830;53.704;10.004;2023-06-19T01:44:59;18.80;99.90
45066;DHT22;30830;53.704;10.004;2023-06-19T01:47:25;18.80;99.90
45066;DHT22;30830;53.704;10.004;2023-06-19T01:49:51;18.80;99.90
45066;DHT22;30830;53.704;10.004;2023-06-19T01:52:16;18.80;99.90
45066;DHT22;30830;53.704;10.004;2023-06-19T01:54:42;18.80;99.90
45066;DHT22;30830;53.704;10.004;2023-06-19T01:57:08;18.80;99.90
45066;DHT22;30830;53.704;10.004;2023-06-19T01:59:33;18.80;99.90
45066;DHT22;30830;53.704;10.004;2023-06-19T02:01:59;18.80;99.90
45066;DHT22;30830;53.704;10.004;2023-06-19T02:04:25;18.80;99.90
45066;DHT22;30830;53.704;10.004;2023-06-19T02:06:50;18.80;99.90
45066;DHT22;30830;53.704;10.004;2023-06-19T02:09:16;18.80;99.90
45066;DHT22;30830;53.704;10.004;2023-06-19T02:11:41;18.80;99.90
45066;DHT22;30830;53.704;10.004;2023-06-19T02:14:09;18.80;99.90
45066;DHT22;30830;53.704;10.004;2023-06-19T02:16:34;18.70;99.90
45066;DHT22;30830;53.704;10.004;2023-06-19T02:19:00;18.80;99.90
45066;DHT22;30830;53.704;10.004;2023-06-19T02:21:25;18.80;99.90
45066;DHT22;30830;53.704;10.004;2023-06-19T02:23:51;18.80;99.90
45066;DHT22;30830;53.704;10.004;2023-06-19T02:26:16;18.80;99.90
45066;DHT22;30830;53.704;10.004;2023-06-19T02:28:42;18.80;99.90
45066;DHT22;30830;53.704;10.004;2023-06-19T02:31:08;18.80;99.90
45066;DHT22;30830;53.704;10.004;2023-06-19T02:33:33;18.70;99.90
45066;DHT22;30830;53.704;10.004;2023-06-19T02:35:59;18.70;99.90
45066;DHT22;30830;53.704;10.004;2023-06-19T02:38:25;18.70;99.90
45066;DHT22;30830;53.704;10.004;2023-06-19T02:40:51;18.70;99.90
45066;DHT22;30830;53.704;10.004;2023-06-19T02:43:16;18.70;99.90
45066;DHT22;30830;53.704;10.004;2023-06-19T02:45:42;18.70;99.90
45066;DHT22;30830;53.704;10.004;2023-06-19T02:48:08;18.70;99.90
45066;DHT22;30830;53.704;10.004;2023-06-19T02:50:33;18.70;99.90
45066;DHT22;30830;53.704;10.004;2023-06-19T02:52:59;18.70;99.90
45066;DHT22;30830;53.704;10.004;2023-06-19T02:55:25;18.70;99.90
45066;DHT22;30830;53.704;10.004;2023-06-19T02:57:50;18.70;99.90
45066;DHT22;30830;53.704;10.004;2023-06-19T03:00:16;18.70;99.90
45066;DHT22;30830;53.704;10.004;2023-06-19T03:02:42;18.60;99.90
45066;DHT22;30830;53.704;10.004;2023-06-19T03:05:10;18.60;99.90
45066;DHT22;30830;53.704;10.004;2023-06-19T03:07:35;18.60;99.90
45066;DHT22;30830;53.704;10.004;2023-06-19T03:10:01;18.70;99.90
45066;DHT22;30830;53.704;10.004;2023-06-19T03:12:26;18.60;99.90
45066;DHT22;30830;53.704;10.004;2023-06-19T03:14:52;18.60;99.90
45066;DHT22;30830;53.704;10.004;2023-06-19T03:17:18;18.60;99.90
45066;DHT22;30830;53.704;10.004;2023-06-19T03:19:43;18.60;99.90
45066;DHT22;30830;53.704;10.004;2023-06-19T03:22:09;18.60;99.90
45066;DHT22;30830;53.704;10.004;2023-06-19T03:24:34;18.60;99.90
45066;DHT22;30830;53.704;10.004;2023-06-19T03:27:00;18.60;99.90
45066;DHT22;30830;53.704;10.004;2023-06-19T03:29:26;18.60;99.90
45066;DHT22;30830;53.704;10.004;2023-06-19T03:31:51;18.60;99.90
45066;DHT22;30830;53.704;10.004;2023-06-19T03:34:17;18.60;99.90
45066;DHT22;30830;53.704;10.004;2023-06-19T03:36:42;18.60;99.90
45066;DHT22;30830;53.704;10.004;2023-06-19T03:39:08;18.60;99.90
45066;DHT22;30830;53.704;10.004;2023-06-19T03:41:33;18.60;99.90
45066;DHT22;30830;53.704;10.004;2023-06-19T03:43:59;18.60;99.90
45066;DHT22;30830;53.704;10.004;2023-06-19T03:46:24;18.70;99.90
45066;DHT22;30830;53.704;10.004;2023-06-19T03:48:50;18.60;99.90
45066;DHT22;30830;53.704;10.004;2023-06-19T03:51:15;18.60;99.90
45066;DHT22;30830;53.704;10.004;2023-06-19T03:53:41;18.60;99.90
45066;DHT22;30830;53.704;10.004;2023-06-19T03:56:07;18.70;99.90
45066;DHT22;30830;53.704;10.004;2023-06-19T03:58:33;18.70;99.90
45066;DHT22;30830;53.704;10.004;2023-06-19T04:00:58;18.70;99.90
45066;DHT22;30830;53.704;10.004;2023-06-19T04:03:24;18.70;99.90
45066;DHT22;30830;53.704;10.004;2023-06-19T04:05:50;18.70;99.90
45066;DHT22;30830;53.704;10.004;2023-06-19T04:08:16;18.70;99.90
45066;DHT22;30830;53.704;10.004;2023-06-19T04:10:41;18.70;99.90
45066;DHT22;30830;53.704;10.004;2023-06-19T04:13:07;18.70;99.90
45066;DHT22;30830;53.704;10.004;2023-06-19T04:15:33;18.70;99.90
45066;DHT22;30830;53.704;10.004;2023-06-19T04:17:59;18.70;99.90
45066;DHT22;30830;53.704;10.004;2023-06-19T04:20:26;18.70;99.90
45066;DHT22;30830;53.704;10.004;2023-06-19T04:22:52;18.70;99.90
45066;DHT22;30830;53.704;10.004;2023-06-19T04:25:17;18.70;99.90
45066;DHT22;30830;53.704;10.004;2023-06-19T04:27:43;18.70;99.90
45066;DHT22;30830;53.704;10.004;2023-06-19T04:30:11;18.70;99.90
45066;DHT22;30830;53.704;10.004;2023-06-19T04:32:37;18.70;99.90
45066;DHT22;30830;53.704;10.004;2023-06-19T04:35:07;18.70;99.90
45066;DHT22;30830;53.704;10.004;2023-06-19T04:37:33;18.80;99.90
45066;DHT22;30830;53.704;10.004;2023-06-19T04:39:58;18.80;99.90
45066;DHT22;30830;53.704;10.004;2023-06-19T04:42:24;18.80;99.90
45066;DHT22;30830;53.704;10.004;2023-06-19T04:44:52;18.80;99.90
45066;DHT22;30830;53.704;10.004;2023-06-19T04:47:19;18.80;99.90
45066;DHT22;30830;53.704;10.004;2023-06-19T04:49:46;18.70;99.90
45066;DHT22;30830;53.704;10.004;2023-06-19T04:52:11;18.80;99.90
45066;DHT22;30830;53.704;10.004;2023-06-19T04:54:37;18.80;99.90
45066;DHT22;30830;53.704;10.004;2023-06-19T04:57:03;18.70;99.90
45066;DHT22;30830;53.704;10.004;2023-06-19T04:59:29;18.80;99.90
45066;DHT22;30830;53.704;10.004;2023-06-19T05:01:56;18.80;99.90
45066;DHT22;30830;53.704;10.004;2023-06-19T05:04:21;18.80;99.90
45066;DHT22;30830;53.704;10.004;2023-06-19T05:06:48;18.80;99.90
45066;DHT22;30830;53.704;10.004;2023-06-19T05:09:13;18.80;99.90
45066;DHT22;30830;53.704;10.004;2023-06-19T05:11:39;18.80;99.90
45066;DHT22;30830;53.704;10.004;2023-06-19T05:14:05;18.80;99.90
45066;DHT22;30830;53.704;10.004;2023-06-19T05:16:30;18.80;99.90
45066;DHT22;30830;53.704;10.004;2023-06-19T05:18:56;18.80;99.90
45066;DHT22;30830;53.704;10.004;2023-06-19T05:21:22;18.90;99.90
45066;DHT22;30830;53.704;10.004;2023-06-19T05:23:47;18.90;99.90
45066;DHT22;30830;53.704;10.004;2023-06-19T05:26:16;18.90;99.90
45066;DHT22;30830;53.704;10.004;2023-06-19T05:28:42;18.90;99.90
45066;DHT22;30830;53.704;10.004;2023-06-19T05:31:07;18.90;99.90
45066;DHT22;30830;53.704;10.004;2023-06-19T05:33:33;18.90;99.90
45066;DHT22;30830;53.704;10.004;2023-06-19T05:35:59;18.90;99.90
45066;DHT22;30830;53.704;10.004;2023-06-19T05:38:24;18.90;99.90
45066;DHT22;30830;53.704;10.004;2023-06-19T05:40:51;18.90;99.90
45066;DHT22;30830;53.704;10.004;2023-06-19T05:43:17;18.90;99.90
45066;DHT22;30830;53.704;10.004;2023-06-19T05:45:44;18.90;99.90
45066;DHT22;30830;53.704;10.004;2023-06-19T05:48:10;19.00;99.90
45066;DHT22;30830;53.704;10.004;2023-06-19T05:50:35;19.00;99.90
45066;DHT22;30830;53.704;10.004;2023-06-19T05:53:01;19.00;99.90
45066;DHT22;30830;53.704;10.004;2023-06-19T05:55:26;19.00;99.90
45066;DHT22;30830;53.704;10.004;2023-06-19T05:57:55;19.00;99.90
45066;DHT22;30830;53.704;10.004;2023-06-19T06:00:21;19.00;99.90
45066;DHT22;30830;53.704;10.004;2023-06-19T06:02:48;19.00;99.90
45066;DHT22;30830;53.704;10.004;2023-06-19T06:05:13;19.00;99.90
45066;DHT22;30830;53.704;10.004;2023-06-19T06:07:39;19.00;99.90
45066;DHT22;30830;53.704;10.004;2023-06-19T06:10:05;19.00;99.90
45066;DHT22;30830;53.704;10.004;2023-06-19T06:12:34;19.10;99.90
45066;DHT22;30830;53.704;10.004;2023-06-19T06:15:06;19.10;99.90
45066;DHT22;30830;53.704;10.004;2023-06-19T06:17:31;19.10;99.90
45066;DHT22;30830;53.704;10.004;2023-06-19T06:19:57;19.10;99.90
45066;DHT22;30830;53.704;10.004;2023-06-19T06:22:23;19.20;99.90
45066;DHT22;30830;53.704;10.004;2023-06-19T06:24:48;19.20;99.90
45066;DHT22;30830;53.704;10.004;2023-06-19T06:27:14;19.20;99.90
45066;DHT22;30830;53.704;10.004;2023-06-19T06:29:39;19.20;99.90
45066;DHT22;30830;53.704;10.004;2023-06-19T06:32:06;19.30;99.90
45066;DHT22;30830;53.704;10.004;2023-06-19T06:34:33;19.30;99.90
45066;DHT22;30830;53.704;10.004;2023-06-19T06:36:59;19.30;99.90
45066;DHT22;30830;53.704;10.004;2023-06-19T06:39:25;19.30;99.90
45066;DHT22;30830;53.704;10.004;2023-06-19T06:41:51;19.30;99.90
45066;DHT22;30830;53.704;10.004;2023-06-19T06:44:17;19.30;99.90
45066;DHT22;30830;53.704;10.004;2023-06-19T06:46:42;19.20;99.90
45066;DHT22;30830;53.704;10.004;2023-06-19T06:49:08;19.30;99.90
45066;DHT22;30830;53.704;10.004;2023-06-19T06:51:34;19.30;99.90
45066;DHT22;30830;53.704;10.004;2023-06-19T06:53:59;19.30;99.90
45066;DHT22;30830;53.704;10.004;2023-06-19T06:56:25;19.30;99.90
45066;DHT22;30830;53.704;10.004;2023-06-19T06:58:50;19.30;99.90
45066;DHT22;30830;53.704;10.004;2023-06-19T07:01:16;19.30;99.90
45066;DHT22;30830;53.704;10.004;2023-06-19T07:03:42;19.40;99.90
45066;DHT22;30830;53.704;10.004;2023-06-19T07:06:07;19.40;99.90
45066;DHT22;30830;53.704;10.004;2023-06-19T07:08:33;19.40;99.90
45066;DHT22;30830;53.704;10.004;2023-06-19T07:10:58;19.40;99.90
45066;DHT22;30830;53.704;10.004;2023-06-19T07:13:25;19.40;99.90
45066;DHT22;30830;53.704;10.004;2023-06-19T07:15:51;19.40;99.90
45066;DHT22;30830;53.704;10.004;2023-06-19T07:18:16;19.50;99.90
45066;DHT22;30830;53.704;10.004;2023-06-19T07:20:42;19.50;99.90
45066;DHT22;30830;53.704;10.004;2023-06-19T07:23:10;19.50;99.90
45066;DHT22;30830;53.704;10.004;2023-06-19T07:25:36;19.50;99.90
45066;DHT22;30830;53.704;10.004;2023-06-19T07:28:02;19.60;99.90
45066;DHT22;30830;53.704;10.004;2023-06-19T07:30:30;19.60;99.90
45066;DHT22;30830;53.704;10.004;2023-06-19T07:32:56;19.60;99.90
45066;DHT22;30830;53.704;10.004;2023-06-19T07:35:21;19.60;99.90
45066;DHT22;30830;53.704;10.004;2023-06-19T07:37:47;19.60;99.90
45066;DHT22;30830;53.704;10.004;2023-06-19T07:40:12;19.70;99.90
45066;DHT22;30830;53.704;10.004;2023-06-19T07:42:38;19.60;99.90
45066;DHT22;30830;53.704;10.004;2023-06-19T07:45:04;19.70;99.90
45066;DHT22;30830;53.704;10.004;2023-06-19T07:47:30;19.70;99.90
45066;DHT22;30830;53.704;10.004;2023-06-19T07:49:56;19.70;99.90
45066;DHT22;30830;53.704;10.004;2023-06-19T07:52:21;19.80;99.90
45066;DHT22;30830;53.704;10.004;2023-06-19T07:54:51;19.80;99.90
45066;DHT22;30830;53.704;10.004;2023-06-19T07:57:18;19.80;99.90
45066;DHT22;30830;53.704;10.004;2023-06-19T07:59:43;19.80;99.90
45066;DHT22;30830;53.704;10.004;2023-06-19T08:02:10;19.90;99.90
45066;DHT22;30830;53.704;10.004;2023-06-19T08:04:36;19.90;99.90
45066;DHT22;30830;53.704;10.004;2023-06-19T08:07:01;19.90;99.90
45066;DHT22;30830;53.704;10.004;2023-06-19T08:09:27;20.00;99.90
45066;DHT22;30830;53.704;10.004;2023-06-19T08:11:52;20.10;99.90
45066;DHT22;30830;53.704;10.004;2023-06-19T08:14:18;20.10;99.90
45066;DHT22;30830;53.704;10.004;2023-06-19T08:16:43;20.30;99.90
45066;DHT22;30830;53.704;10.004;2023-06-19T08:19:09;20.30;99.90
45066;DHT22;30830;53.704;10.004;2023-06-19T08:21:34;20.50;99.90
45066;DHT22;30830;53.704;10.004;2023-06-19T08:24:00;20.70;99.90
45066;DHT22;30830;53.704;10.004;2023-06-19T08:26:26;21.00;99.90
45066;DHT22;30830;53.704;10.004;2023-06-19T08:28:51;21.30;99.90
45066;DHT22;30830;53.704;10.004;2023-06-19T08:31:17;21.50;99.90
45066;DHT22;30830;53.704;10.004;2023-06-19T08:33:42;21.80;99.90
45066;DHT22;30830;53.704;10.004;2023-06-19T08:36:08;22.00;99.90
45066;DHT22;30830;53.704;10.004;2023-06-19T08:38:33;22.30;99.90
45066;DHT22;30830;53.704;10.004;2023-06-19T08:40:59;22.40;99.90
45066;DHT22;30830;53.704;10.004;2023-06-19T08:43:26;22.50;99.90
45066;DHT22;30830;53.704;10.004;2023-06-19T08:46:10;22.60;99.90
45066;DHT22;30830;53.704;10.004;2023-06-19T08:48:37;22.70;99.90
45066;DHT22;30830;53.704;10.004;2023-06-19T08:51:03;22.80;99.90
45066;DHT22;30830;53.704;10.004;2023-06-19T08:53:34;23.00;99.90
45066;DHT22;30830;53.704;10.004;2023-06-19T08:56:00;23.30;99.10
45066;DHT22;30830;53.704;10.004;2023-06-19T08:58:26;23.50;98.70
45066;DHT22;30830;53.704;10.004;2023-06-19T09:00:52;23.60;98.50
45066;DHT22;30830;53.704;10.004;2023-06-19T09:03:21;23.70;97.90
45066;DHT22;30830;53.704;10.004;2023-06-19T09:05:48;23.70;98.10
45066;DHT22;30830;53.704;10.004;2023-06-19T09:08:17;23.80;97.50
45066;DHT22;30830;53.704;10.004;2023-06-19T09:11:00;23.80;97.60
45066;DHT22;30830;53.704;10.004;2023-06-19T09:13:27;23.80;98.20
45066;DHT22;30830;53.704;10.004;2023-06-19T09:16:04;23.90;98.30
45066;DHT22;30830;53.704;10.004;2023-06-19T09:18:31;24.00;97.80
45066;DHT22;30830;53.704;10.004;2023-06-19T09:21:06;24.00;97.70
45066;DHT22;30830;53.704;10.004;2023-06-19T09:23:39;24.10;97.70
45066;DHT22;30830;53.704;10.004;2023-06-19T09:26:05;24.10;97.60
45066;DHT22;30830;53.704;10.004;2023-06-19T09:28:31;24.20;97.50
45066;DHT22;30830;53.704;10.004;2023-06-19T09:31:00;24.20;97.50
45066;DHT22;30830;53.704;10.004;2023-06-19T09:33:28;24.30;97.30
45066;DHT22;30830;53.704;10.004;2023-06-19T09:35:55;24.50;97.40
45066;DHT22;30830;53.704;10.004;2023-06-19T09:38:24;24.40;96.40
45066;DHT22;30830;53.704;10.004;2023-06-19T09:40:51;24.50;96.70
45066;DHT22;30830;53.704;10.004;2023-06-19T09:43:21;24.60;97.00
45066;DHT22;30830;53.704;10.004;2023-06-19T09:45:49;24.80;96.60
45066;DHT22;30830;53.704;10.004;2023-06-19T09:48:24;24.90;96.40
45066;DHT22;30830;53.704;10.004;2023-06-19T09:50:55;25.10;96.10
45066;DHT22;30830;53.704;10.004;2023-06-19T09:53:25;25.20;95.90
45066;DHT22;30830;53.704;10.004;2023-06-19T09:55:50;25.40;95.80
45066;DHT22;30830;53.704;10.004;2023-06-19T09:58:19;25.50;95.50
45066;DHT22;30830;53.704;10.004;2023-06-19T10:00:46;25.60;95.20
45066;DHT22;30830;53.704;10.004;2023-06-19T10:03:13;25.80;95.60
45066;DHT22;30830;53.704;10.004;2023-06-19T10:05:39;26.00;94.90
45066;DHT22;30830;53.704;10.004;2023-06-19T10:08:06;26.10;94.80
45066;DHT22;30830;53.704;10.004;2023-06-19T10:10:32;26.10;94.40
45066;DHT22;30830;53.704;10.004;2023-06-19T10:13:10;26.20;94.60
45066;DHT22;30830;53.704;10.004;2023-06-19T10:15:43;26.30;94.00
45066;DHT22;30830;53.704;10.004;2023-06-19T10:18:14;26.40;93.30
45066;DHT22;30830;53.704;10.004;2023-06-19T10:20:42;26.50;93.40
45066;DHT22;30830;53.704;10.004;2023-06-19T10:23:14;26.60;93.50
45066;DHT22;30830;53.704;10.004;2023-06-19T10:25:47;26.80;92.50
45066;DHT22;30830;53.704;10.004;2023-06-19T10:28:21;26.90;92.40
45066;DHT22;30830;53.704;10.004;2023-06-19T10:31:02;27.10;92.60
45066;DHT22;30830;53.704;10.004;2023-06-19T10:33:30;27.30;92.10
45066;DHT22;30830;53.704;10.004;2023-06-19T10:35:58;27.30;92.00
45066;DHT22;30830;53.704;10.004;2023-06-19T10:38:25;27.20;91.60
45066;DHT22;30830;53.704;10.004;2023-06-19T10:40:51;27.20;91.60
45066;DHT22;30830;53.704;10.004;2023-06-19T10:43:24;27.10;92.00
45066;DHT22;30830;53.704;10.004;2023-06-19T10:45:54;27.10;92.10
45066;DHT22;30830;53.704;10.004;2023-06-19T10:48:23;27.30;91.70
45066;DHT22;30830;53.704;10.004;2023-06-19T10:50:50;27.30;91.70
45066;DHT22;30830;53.704;10.004;2023-06-19T10:53:26;27.30;91.70
45066;DHT22;30830;53.704;10.004;2023-06-19T10:56:00;27.40;91.90
45066;DHT22;30830;53.704;10.004;2023-06-19T10:58:26;27.60;91.90
45066;DHT22;30830;53.704;10.004;2023-06-19T11:00:52;27.80;92.10
45066;DHT22;30830;53.704;10.004;2023-06-19T11:03:22;27.90;92.00
45066;DHT22;30830;53.704;10.004;2023-06-19T11:05:48;28.10;91.80
45066;DHT22;30830;53.704;10.004;2023-06-19T11:08:18;28.10;91.10
45066;DHT22;30830;53.704;10.004;2023-06-19T11:10:44;28.20;90.90
45066;DHT22;30830;53.704;10.004;2023-06-19T11:13:14;28.20;90.90
45066;DHT22;30830;53.704;10.004;2023-06-19T11:15:40;28.30;91.40
45066;DHT22;30830;53.704;10.004;2023-06-19T11:18:06;28.40;92.10
45066;DHT22;30830;53.704;10.004;2023-06-19T11:20:49;28.40;90.70
45066;DHT22;30830;53.704;10.004;2023-06-19T11:23:16;28.40;91.20
45066;DHT22;30830;53.704;10.004;2023-06-19T11:25:42;28.30;91.60
45066;DHT22;30830;53.704;10.004;2023-06-19T11:28:12;28.30;90.60
45066;DHT22;30830;53.704;10.004;2023-06-19T11:30:43;28.30;91.60
45066;DHT22;30830;53.704;10.004;2023-06-19T11:33:22;28.40;90.80
45066;DHT22;30830;53.704;10.004;2023-06-19T11:35:49;28.50;90.30
45066;DHT22;30830;53.704;10.004;2023-06-19T11:38:19;28.60;90.60
45066;DHT22;30830;53.704;10.004;2023-06-19T11:40:45;28.70;90.80
45066;DHT22;30830;53.704;10.004;2023-06-19T11:43:11;28.70;88.50
45066;DHT22;30830;53.704;10.004;2023-06-19T11:45:48;28.60;90.10
45066;DHT22;30830;53.704;10.004;2023-06-19T11:48:20;28.70;89.40
45066;DHT22;30830;53.704;10.004;2023-06-19T11:50:46;28.70;90.00
45066;DHT22;30830;53.704;10.004;2023-06-19T11:53:12;28.60;89.70
45066;DHT22;30830;53.704;10.004;2023-06-19T11:55:38;28.60;90.00
45066;DHT22;30830;53.704;10.004;2023-06-19T11:58:04;28.60;90.00
45066;DHT22;30830;53.704;10.004;2023-06-19T12:00:29;28.60;89.90
45066;DHT22;30830;53.704;10.004;2023-06-19T12:02:55;28.60;88.20
45066;DHT22;30830;53.704;10.004;2023-06-19T12:05:22;28.50;90.00
45066;DHT22;30830;53.704;10.004;2023-06-19T12:07:48;28.50;88.70
45066;DHT22;30830;53.704;10.004;2023-06-19T12:10:13;28.50;89.50
45066;DHT22;30830;53.704;10.004;2023-06-19T12:12:39;28.50;89.20
45066;DHT22;30830;53.704;10.004;2023-06-19T12:15:05;28.60;90.00
45066;DHT22;30830;53.704;10.004;2023-06-19T12:17:31;28.60;88.50
45066;DHT22;30830;53.704;10.004;2023-06-19T12:19:57;28.60;87.40
45066;DHT22;30830;53.704;10.004;2023-06-19T12:22:22;28.60;87.60
45066;DHT22;30830;53.704;10.004;2023-06-19T12:24:48;28.50;88.30
45066;DHT22;30830;53.704;10.004;2023-06-19T12:27:14;28.50;87.40
45066;DHT22;30830;53.704;10.004;2023-06-19T12:29:39;28.40;88.50
45066;DHT22;30830;53.704;10.004;2023-06-19T12:32:05;28.40;88.70
45066;DHT22;30830;53.704;10.004;2023-06-19T12:34:31;28.30;88.30
45066;DHT22;30830;53.704;10.004;2023-06-19T12:36:56;28.20;89.00
45066;DHT22;30830;53.704;10.004;2023-06-19T12:39:25;28.20;89.10
45066;DHT22;30830;53.704;10.004;2023-06-19T12:41:51;28.10;88.10
45066;DHT22;30830;53.704;10.004;2023-06-19T12:44:17;28.10;89.90
45066;DHT22;30830;53.704;10.004;2023-06-19T12:46:43;28.20;89.60
45066;DHT22;30830;53.704;10.004;2023-06-19T12:49:08;28.10;89.90
45066;DHT22;30830;53.704;10.004;2023-06-19T12:51:34;28.20;88.70
45066;DHT22;30830;53.704;10.004;2023-06-19T12:54:00;28.10;90.30
45066;DHT22;30830;53.704;10.004;2023-06-19T12:56:25;28.20;89.20
45066;DHT22;30830;53.704;10.004;2023-06-19T12:58:51;28.20;90.00
45066;DHT22;30830;53.704;10.004;2023-06-19T13:01:16;28.30;90.10
45066;DHT22;30830;53.704;10.004;2023-06-19T13:03:42;28.30;90.10
45066;DHT22;30830;53.704;10.004;2023-06-19T13:06:08;28.30;90.60
45066;DHT22;30830;53.704;10.004;2023-06-19T13:08:34;28.30;90.00
45066;DHT22;30830;53.704;10.004;2023-06-19T13:10:59;28.30;90.50
45066;DHT22;30830;53.704;10.004;2023-06-19T13:13:25;28.40;90.30
45066;DHT22;30830;53.704;10.004;2023-06-19T13:15:50;28.40;89.80
45066;DHT22;30830;53.704;10.004;2023-06-19T13:18:17;28.40;90.40
45066;DHT22;30830;53.704;10.004;2023-06-19T13:20:43;28.60;90.50
45066;DHT22;30830;53.704;10.004;2023-06-19T13:23:10;28.80;89.60
45066;DHT22;30830;53.704;10.004;2023-06-19T13:25:35;29.00;90.10
45066;DHT22;30830;53.704;10.004;2023-06-19T13:28:01;29.10;89.70
45066;DHT22;30830;53.704;10.004;2023-06-19T13:30:27;29.10;88.70
45066;DHT22;30830;53.704;10.004;2023-06-19T13:32:52;29.00;89.70
45066;DHT22;30830;53.704;10.004;2023-06-19T13:35:18;28.80;88.80
45066;DHT22;30830;53.704;10.004;2023-06-19T13:37:44;28.60;89.80
45066;DHT22;30830;53.704;10.004;2023-06-19T13:40:09;28.10;90.30
45066;DHT22;30830;53.704;10.004;2023-06-19T13:42:35;27.90;91.90
45066;DHT22;30830;53.704;10.004;2023-06-19T13:45:01;27.60;92.80
45066;DHT22;30830;53.704;10.004;2023-06-19T13:47:27;27.50;93.10
45066;DHT22;30830;53.704;10.004;2023-06-19T13:49:53;27.40;93.80
45066;DHT22;30830;53.704;10.004;2023-06-19T13:52:19;27.20;94.30
45066;DHT22;30830;53.704;10.004;2023-06-19T13:54:44;27.30;94.80
45066;DHT22;30830;53.704;10.004;2023-06-19T13:57:10;27.30;94.60
45066;DHT22;30830;53.704;10.004;2023-06-19T13:59:36;27.40;94.60
45066;DHT22;30830;53.704;10.004;2023-06-19T14:02:01;27.60;94.60
45066;DHT22;30830;53.704;10.004;2023-06-19T14:04:27;27.70;94.00
45066;DHT22;30830;53.704;10.004;2023-06-19T14:06:53;27.70;93.40
45066;DHT22;30830;53.704;10.004;2023-06-19T14:09:20;27.80;93.80
45066;DHT22;30830;53.704;10.004;2023-06-19T14:11:46;27.80;93.60
45066;DHT22;30830;53.704;10.004;2023-06-19T14:14:11;27.80;94.10
45066;DHT22;30830;53.704;10.004;2023-06-19T14:16:37;28.00;93.70
45066;DHT22;30830;53.704;10.004;2023-06-19T14:19:03;28.00;93.80
45066;DHT22;30830;53.704;10.004;2023-06-19T14:21:28;28.00;93.80
45066;DHT22;30830;53.704;10.004;2023-06-19T14:23:54;27.90;94.00
45066;DHT22;30830;53.704;10.004;2023-06-19T14:26:19;27.90;94.70
45066;DHT22;30830;53.704;10.004;2023-06-19T14:28:45;27.90;94.80
45066;DHT22;30830;53.704;10.004;2023-06-19T14:31:11;27.90;94.40
45066;DHT22;30830;53.704;10.004;2023-06-19T14:33:36;27.90;95.10
45066;DHT22;30830;53.704;10.004;2023-06-19T14:36:03;27.80;94.20
45066;DHT22;30830;53.704;10.004;2023-06-19T14:38:29;27.60;94.40
45066;DHT22;30830;53.704;10.004;2023-06-19T14:40:59;27.70;94.40
45066;DHT22;30830;53.704;10.004;2023-06-19T14:43:25;27.70;94.60
45066;DHT22;30830;53.704;10.004;2023-06-19T14:45:50;27.60;94.30
45066;DHT22;30830;53.704;10.004;2023-06-19T14:48:16;27.50;94.00
45066;DHT22;30830;53.704;10.004;2023-06-19T14:50:42;27.30;94.20
45066;DHT22;30830;53.704;10.004;2023-06-19T14:53:08;27.10;94.90
45066;DHT22;30830;53.704;10.004;2023-06-19T14:55:34;27.00;94.70
45066;DHT22;30830;53.704;10.004;2023-06-19T14:57:59;26.90;95.00
45066;DHT22;30830;53.704;10.004;2023-06-19T15:00:25;26.90;95.20
45066;DHT22;30830;53.704;10.004;2023-06-19T15:02:50;27.00;95.50
45066;DHT22;30830;53.704;10.004;2023-06-19T15:05:16;27.10;95.30
45066;DHT22;30830;53.704;10.004;2023-06-19T15:07:42;27.10;95.10
45066;DHT22;30830;53.704;10.004;2023-06-19T15:10:08;27.00;95.00
45066;DHT22;30830;53.704;10.004;2023-06-19T15:12:33;26.90;94.80
45066;DHT22;30830;53.704;10.004;2023-06-19T15:15:00;26.90;95.20
45066;DHT22;30830;53.704;10.004;2023-06-19T15:17:26;26.70;95.30